createdAt,value
2022-08-20T00:01:17.194Z,97034.44
2022-08-20T00:03:50.149Z,97035.25
2022-08-20T00:06:24.022Z,97026.22
2022-08-20T00:08:51.906Z,97032.72
2022-08-20T00:11:25.394Z,97040.19
2022-08-20T00:13:57.765Z,97042.09
2022-08-20T00:16:32.539Z,97035.63
2022-08-20T00:19:01.954Z,97022.63
2022-08-20T00:21:29.536Z,96999.34
2022-08-20T00:23:59.652Z,96994.34
2022-08-20T00:26:27.499Z,96982.97
2022-08-20T00:28:55.090Z,96958.94
2022-08-20T00:31:24.715Z,96959.63
2022-08-20T00:33:53.262Z,96969.03
2022-08-20T00:36:22.130Z,96988.41
2022-08-20T00:39:00.712Z,96997.31
2022-08-20T00:41:29.130Z,97003.09
2022-08-20T00:44:21.966Z,97020.00
2022-08-20T00:46:50.296Z,97020.66
2022-08-20T00:49:29.180Z,97022.28
2022-08-20T00:52:14.276Z,97017.97
2022-08-20T00:54:55.358Z,97008.03
2022-08-20T00:58:01.426Z,97013.84
2022-08-20T01:00:38.325Z,96989.03
2022-08-20T01:03:09.992Z,96979.19
2022-08-20T01:05:40.674Z,96974.47
2022-08-20T01:08:09.395Z,96970.09
2022-08-20T01:10:41.330Z,96954.25
2022-08-20T01:13:15.985Z,96941.41
2022-08-20T01:15:47.207Z,96930.59
2022-08-20T01:18:20.776Z,96939.22
2022-08-20T01:20:57.866Z,96941.09
2022-08-20T01:23:49.719Z,96947.69
2022-08-20T01:26:29.408Z,96957.94
2022-08-20T01:29:08.067Z,96952.06
2022-08-20T01:31:38.790Z,96948.88
2022-08-20T01:34:11.729Z,96957.72
2022-08-20T01:36:52.592Z,96960.84
2022-08-20T01:39:28.285Z,96962.19
2022-08-20T01:42:31.225Z,96972.06
2022-08-20T01:44:58.530Z,96966.59
2022-08-20T01:47:33.674Z,96973.00
2022-08-20T01:50:24.794Z,96990.09
2022-08-20T01:53:33.598Z,96992.44
2022-08-20T01:56:08.196Z,96989.09
2022-08-20T01:58:39.805Z,97002.72
2022-08-20T02:01:07.222Z,97004.34
2022-08-20T02:03:38.766Z,97004.94
2022-08-20T02:06:07.231Z,97004.91
2022-08-20T02:08:34.553Z,97010.00
2022-08-20T02:11:02.408Z,97007.66
2022-08-20T02:13:29.659Z,97016.72
2022-08-20T02:15:56.945Z,97015.94
2022-08-20T02:18:24.801Z,97018.63
2022-08-20T02:20:52.834Z,97012.91
2022-08-20T02:23:20.607Z,97006.97
2022-08-20T02:25:48.784Z,97001.41
2022-08-20T02:28:19.947Z,96994.56
2022-08-20T02:30:53.495Z,96996.03
2022-08-20T02:33:24.310Z,96997.50
2022-08-20T02:35:56.530Z,97007.22
2022-08-20T02:38:25.158Z,97009.66
2022-08-20T02:40:53.087Z,97005.41
2022-08-20T02:43:21.679Z,96999.16
2022-08-20T02:45:49.220Z,97004.84
2022-08-20T02:48:21.330Z,96996.91
2022-08-20T02:50:58.553Z,97007.31
2022-08-20T02:53:28.424Z,97005.53
2022-08-20T02:55:56.919Z,97011.13
2022-08-20T02:58:24.379Z,97001.31
2022-08-20T03:00:51.913Z,96994.56
2022-08-20T03:03:22.668Z,97003.84
2022-08-20T03:05:57.743Z,97004.19
2022-08-20T03:08:26.998Z,96999.84
2022-08-20T03:10:54.395Z,97004.31
2022-08-20T03:13:23.317Z,97000.44
2022-08-20T03:15:58.807Z,96981.41
2022-08-20T03:18:36.573Z,96979.44
2022-08-20T03:21:06.065Z,96975.47
2022-08-20T03:23:34.262Z,96979.81
2022-08-20T03:26:12.444Z,96984.06
2022-08-20T03:28:41.499Z,96975.22
2022-08-20T03:31:08.998Z,96981.56
2022-08-20T03:33:39.388Z,96989.84
2022-08-20T03:36:22.277Z,96989.06
2022-08-20T03:39:03.834Z,96984.31
2022-08-20T03:41:32.268Z,96975.59
2022-08-20T03:43:59.577Z,96969.81
2022-08-20T03:46:26.967Z,96960.53
2022-08-20T03:48:59.501Z,96955.88
2022-08-20T03:51:56.042Z,96955.88
2022-08-20T03:54:20.684Z,96956.09
2022-08-20T03:56:48.087Z,96958.78
2022-08-20T03:59:15.435Z,96953.97
2022-08-20T04:01:46.167Z,96954.50
2022-08-20T04:04:15.063Z,96946.91
2022-08-20T04:06:43.776Z,96951.81
2022-08-20T04:09:12.310Z,96951.69
2022-08-20T04:11:41.540Z,96943.34
2022-08-20T04:14:11.065Z,96953.16
2022-08-20T04:16:40.554Z,96949.59
2022-08-20T04:19:08.892Z,96959.88
2022-08-20T04:21:36.825Z,96952.16
2022-08-20T04:24:06.166Z,96947.13
2022-08-20T04:26:37.398Z,96956.75
2022-08-20T04:29:05.249Z,96950.03
2022-08-20T04:31:35.487Z,96952.28
2022-08-20T04:34:08.085Z,96952.25
2022-08-20T04:36:35.639Z,96950.53
2022-08-20T04:39:04.088Z,96947.75
2022-08-20T04:41:31.436Z,96943.34
2022-08-20T04:43:58.778Z,96954.81
2022-08-20T04:46:28.882Z,96957.66
2022-08-20T04:48:57.740Z,96958.63
2022-08-20T04:51:25.627Z,96954.25
2022-08-20T04:53:56.495Z,96955.78
2022-08-20T04:56:27.278Z,96957.53
2022-08-20T04:58:58.398Z,96955.19
2022-08-20T05:01:26.910Z,96959.78
2022-08-20T05:03:55.855Z,96960.50
2022-08-20T05:06:31.927Z,96962.91
2022-08-20T05:09:00.920Z,96964.13
2022-08-20T05:11:35.913Z,96959.72
2022-08-20T05:14:09.702Z,96959.28
2022-08-20T05:16:41.084Z,96956.16
2022-08-20T05:19:12.032Z,96951.66
2022-08-20T05:21:40.542Z,96947.06
2022-08-20T05:24:08.405Z,96960.63
2022-08-20T05:26:36.433Z,96958.03
2022-08-20T05:29:05.603Z,96955.75
2022-08-20T05:31:34.895Z,96951.53
2022-08-20T05:34:11.098Z,96951.34
2022-08-20T05:36:49.652Z,96947.03
2022-08-20T05:39:19.656Z,96943.66
2022-08-20T05:41:49.609Z,96942.78
2022-08-20T05:44:18.461Z,96953.69
2022-08-20T05:46:47.508Z,96955.16
2022-08-20T05:49:21.690Z,96954.06
2022-08-20T05:51:51.409Z,96960.81
2022-08-20T05:54:18.934Z,96970.03
2022-08-20T05:56:46.309Z,96962.78
2022-08-20T05:59:14.171Z,96956.94
2022-08-20T06:01:43.155Z,96960.72
2022-08-20T06:04:28.550Z,96965.28
2022-08-20T06:07:06.872Z,96966.91
2022-08-20T06:09:36.370Z,96965.34
2022-08-20T06:12:09.001Z,96958.88
2022-08-20T06:14:36.660Z,96951.56
2022-08-20T06:17:15.971Z,96964.63
2022-08-20T06:19:46.869Z,96972.59
2022-08-20T06:22:18.186Z,96976.91
2022-08-20T06:24:50.509Z,96971.41
2022-08-20T06:27:18.569Z,96977.84
2022-08-20T06:29:46.192Z,96974.16
2022-08-20T06:32:14.238Z,96977.75
2022-08-20T06:34:50.972Z,96974.25
2022-08-20T06:37:31.702Z,96983.78
2022-08-20T06:40:13.364Z,96988.41
2022-08-20T06:42:47.797Z,96998.38
2022-08-20T06:45:24.546Z,97000.06
2022-08-20T06:47:54.129Z,97007.00
2022-08-20T06:50:43.159Z,97007.63
2022-08-20T06:53:19.254Z,97003.16
2022-08-20T06:55:51.797Z,97014.22
2022-08-20T06:58:37.038Z,97002.78
2022-08-20T07:01:11.348Z,97004.41
2022-08-20T07:03:42.331Z,96998.78
2022-08-20T07:06:26.068Z,97001.59
2022-08-20T07:08:55.393Z,97005.41
2022-08-20T07:11:27.797Z,97002.84
2022-08-20T07:13:58.390Z,97002.63
2022-08-20T07:16:27.310Z,96999.56
2022-08-20T07:18:54.709Z,96995.09
2022-08-20T07:21:22.106Z,96993.72
2022-08-20T07:23:49.600Z,96995.41
2022-08-20T07:26:18.256Z,97009.22
2022-08-20T07:28:46.945Z,97011.88
2022-08-20T07:31:34.984Z,97015.38
2022-08-20T07:34:04.020Z,97006.34
2022-08-20T07:36:32.875Z,97009.63
2022-08-20T07:39:05.927Z,97021.97
2022-08-20T07:41:34.346Z,97013.81
2022-08-20T07:44:01.698Z,97011.72
2022-08-20T07:46:31.285Z,97027.97
2022-08-20T07:48:59.770Z,97026.59
2022-08-20T07:51:27.639Z,97024.91
2022-08-20T07:53:55.115Z,97037.63
2022-08-20T07:56:24.534Z,97034.81
2022-08-20T07:58:55.686Z,97034.63
2022-08-20T08:01:31.609Z,97024.25
2022-08-20T08:04:00.749Z,97028.81
2022-08-20T08:06:31.390Z,97030.13
2022-08-20T08:09:09.950Z,97013.06
2022-08-20T08:11:47.227Z,97005.38
2022-08-20T08:14:23.666Z,97000.38
2022-08-20T08:16:53.236Z,96995.25
2022-08-20T08:19:20.745Z,96996.84
2022-08-20T08:21:48.251Z,96995.16
2022-08-20T08:24:21.026Z,96989.03
2022-08-20T08:26:50.364Z,96997.09
2022-08-20T08:29:18.143Z,96986.81
2022-08-20T08:31:45.588Z,96991.88
2022-08-20T08:34:13.584Z,96989.00
2022-08-20T08:36:44.283Z,96992.31
2022-08-20T08:39:11.799Z,96987.94
2022-08-20T08:41:50.190Z,96988.56
2022-08-20T08:44:27.181Z,96984.84
2022-08-20T08:47:00.897Z,96987.22
2022-08-20T08:49:37.415Z,96992.25
2022-08-20T08:52:14.806Z,96985.66
2022-08-20T08:54:50.175Z,96979.72
2022-08-20T08:57:18.827Z,96981.94
2022-08-20T09:00:13.656Z,96982.69
2022-08-20T09:02:53.497Z,96990.81
2022-08-20T09:05:23.527Z,96990.41
2022-08-20T09:07:54.312Z,96990.50
2022-08-20T09:10:23.057Z,96999.22
2022-08-20T09:12:52.500Z,96987.56
2022-08-20T09:15:21.600Z,96987.94
2022-08-20T09:17:49.315Z,96991.63
2022-08-20T09:20:18.340Z,96995.69
2022-08-20T09:22:45.558Z,97006.28
2022-08-20T09:25:13.442Z,97012.94
2022-08-20T09:27:41.501Z,97009.03
2022-08-20T09:30:12.138Z,96999.72
2022-08-20T09:32:42.197Z,97004.66
2022-08-20T09:35:10.620Z,97015.06
2022-08-20T09:37:38.115Z,97016.09
2022-08-20T09:40:08.806Z,97019.03
2022-08-20T09:42:41.376Z,97021.31
2022-08-20T09:45:11.425Z,97022.38
2022-08-20T09:47:41.696Z,97029.69
2022-08-20T09:50:24.202Z,97026.25
2022-08-20T09:52:54.347Z,97030.41
2022-08-20T09:55:30.809Z,97032.31
2022-08-20T09:57:59.208Z,97022.38
2022-08-20T10:00:26.762Z,97017.50
2022-08-20T10:02:54.109Z,97006.84
2022-08-20T10:05:21.487Z,97010.81
2022-08-20T10:07:50.098Z,97011.97
2022-08-20T10:10:17.464Z,97018.22
2022-08-20T10:12:46.066Z,97009.28
2022-08-20T10:15:13.941Z,97018.94
2022-08-20T10:17:43.365Z,97010.75
2022-08-20T10:20:14.723Z,97014.69
2022-08-20T10:22:42.918Z,97010.44
2022-08-20T10:25:11.142Z,97011.22
2022-08-20T10:27:40.848Z,97008.00
2022-08-20T10:30:09.127Z,97008.72
2022-08-20T10:32:36.544Z,97008.66
2022-08-20T10:35:04.787Z,97001.63
2022-08-20T10:37:32.209Z,97009.75
2022-08-20T10:39:59.524Z,96998.88
2022-08-20T10:42:27.019Z,97005.31
2022-08-20T10:44:54.439Z,97008.84
2022-08-20T10:47:29.367Z,97007.41
2022-08-20T10:50:00.316Z,97005.19
2022-08-20T10:52:28.958Z,97007.34
2022-08-20T10:54:56.573Z,97005.69
2022-08-20T10:57:27.998Z,97004.84
2022-08-20T10:59:57.974Z,97001.53
2022-08-20T11:02:26.712Z,97001.84
2022-08-20T11:04:54.432Z,97002.66
2022-08-20T11:07:55.376Z,96999.78
2022-08-20T11:10:22.281Z,97014.44
2022-08-20T11:12:49.662Z,97001.91
2022-08-20T11:15:17.282Z,96996.63
2022-08-20T11:17:45.787Z,96992.50
2022-08-20T11:20:17.038Z,96983.47
2022-08-20T11:22:44.401Z,96991.91
2022-08-20T11:25:12.091Z,96989.56
2022-08-20T11:27:45.193Z,96988.66
2022-08-20T11:30:19.677Z,97001.56
2022-08-20T11:32:47.043Z,96990.16
2022-08-20T11:35:41.031Z,96980.75
2022-08-20T11:38:03.049Z,96976.44
2022-08-20T11:40:31.772Z,96980.03
2022-08-20T11:43:14.120Z,96975.22
2022-08-20T11:45:44.572Z,96978.06
2022-08-20T11:48:12.066Z,96977.78
2022-08-20T11:50:39.411Z,96970.13
2022-08-20T11:53:07.943Z,96968.25
2022-08-20T11:55:36.589Z,96974.56
2022-08-20T11:58:04.597Z,96972.53
2022-08-20T12:00:34.155Z,96967.28
2022-08-20T12:03:04.998Z,96960.38
2022-08-20T12:05:33.213Z,96965.22
2022-08-20T12:08:04.521Z,96965.44
2022-08-20T12:10:32.190Z,96971.31
2022-08-20T12:12:59.786Z,96970.56
2022-08-20T12:15:27.772Z,96976.06
2022-08-20T12:17:55.618Z,96975.72
2022-08-20T12:20:24.378Z,96985.81
2022-08-20T12:22:52.763Z,96987.72
2022-08-20T12:25:20.935Z,96997.03
2022-08-20T12:27:48.479Z,96999.34
2022-08-20T12:30:20.178Z,97004.72
2022-08-20T12:32:48.313Z,97008.09
2022-08-20T12:35:18.382Z,97006.78
2022-08-20T12:37:47.304Z,97014.78
2022-08-20T12:40:24.563Z,97006.56
2022-08-20T12:43:01.838Z,97017.22
2022-08-20T12:45:31.103Z,97016.06
2022-08-20T12:48:06.667Z,97022.25
2022-08-20T12:50:36.309Z,97013.34
2022-08-20T12:53:04.932Z,97021.34
2022-08-20T12:55:32.735Z,97022.56
2022-08-20T12:58:03.685Z,97027.94
2022-08-20T13:00:39.121Z,97025.94
2022-08-20T13:03:12.805Z,97028.28
2022-08-20T13:05:41.219Z,97017.06
2022-08-20T13:08:11.862Z,97022.75
2022-08-20T13:10:44.713Z,97034.28
2022-08-20T13:13:15.074Z,97042.19
2022-08-20T13:15:45.029Z,97040.28
2022-08-20T13:18:12.405Z,97049.59
2022-08-20T13:20:39.727Z,97044.19
2022-08-20T13:23:07.126Z,97048.06
2022-08-20T13:25:34.970Z,97061.78
2022-08-20T13:28:05.178Z,97067.50
2022-08-20T13:30:34.859Z,97073.63
2022-08-20T13:33:02.751Z,97088.59
2022-08-20T13:35:30.632Z,97089.31
2022-08-20T13:37:58.198Z,97089.94
2022-08-20T13:40:26.124Z,97096.00
2022-08-20T13:42:53.817Z,97101.19
2022-08-20T13:45:21.460Z,97107.03
2022-08-20T13:47:54.303Z,97106.16
2022-08-20T13:50:24.759Z,97104.28
2022-08-20T13:52:52.380Z,97102.25
2022-08-20T13:55:23.139Z,97108.81
2022-08-20T13:57:51.809Z,97097.44
2022-08-20T14:00:31.887Z,97099.78
2022-08-20T14:03:04.661Z,97097.53
2022-08-20T14:05:33.946Z,97089.31
2022-08-20T14:08:18.787Z,97085.06
2022-08-20T14:10:51.342Z,97082.53
2022-08-20T14:13:22.784Z,97075.66
2022-08-20T14:15:51.126Z,97077.94
2022-08-20T14:18:19.518Z,97072.81
2022-08-20T14:20:47.271Z,97063.25
2022-08-20T14:23:15.854Z,97072.69
2022-08-20T14:25:47.495Z,97074.13
2022-08-20T14:28:24.190Z,97072.16
2022-08-20T14:30:53.302Z,97067.72
2022-08-20T14:33:23.264Z,97068.41
2022-08-20T14:35:51.163Z,97067.47
2022-08-20T14:38:18.925Z,97057.66
2022-08-20T14:40:46.785Z,97059.03
2022-08-20T14:43:14.327Z,97043.66
2022-08-20T14:45:41.706Z,97031.50
2022-08-20T14:48:09.537Z,97020.91
2022-08-20T14:50:38.372Z,97016.78
2022-08-20T14:53:06.537Z,97010.03
2022-08-20T14:55:37.731Z,97012.72
2022-08-20T14:58:14.997Z,96998.19
2022-08-20T15:00:43.341Z,96997.03
2022-08-20T15:03:11.171Z,97001.75
2022-08-20T15:05:39.567Z,97002.94
2022-08-20T15:08:08.351Z,96983.41
2022-08-20T15:10:38.938Z,96989.09
2022-08-20T15:13:07.039Z,96981.38
2022-08-20T15:15:35.107Z,96982.16
2022-08-20T15:18:02.404Z,96980.50
2022-08-20T15:20:32.984Z,96975.88
2022-08-20T15:23:02.308Z,96971.56
2022-08-20T15:25:36.893Z,96961.22
2022-08-20T15:28:08.751Z,96954.00
2022-08-20T15:30:39.821Z,96946.81
2022-08-20T15:33:08.878Z,96936.53
2022-08-20T15:35:36.786Z,96942.38
2022-08-20T15:38:04.542Z,96953.84
2022-08-20T15:40:33.481Z,96938.47
2022-08-20T15:43:03.974Z,96941.53
2022-08-20T15:45:32.958Z,96937.53
2022-08-20T15:48:31.490Z,96947.41
2022-08-20T15:51:28.819Z,96950.34
2022-08-20T15:54:13.673Z,96953.41
2022-08-20T15:57:03.227Z,96958.09
2022-08-20T16:00:07.403Z,96960.13
2022-08-20T16:03:16.241Z,96968.09
2022-08-20T16:06:17.038Z,96965.13
2022-08-20T16:09:15.068Z,96960.78
2022-08-20T16:12:14.377Z,96947.69
2022-08-20T16:14:46.156Z,96950.47
2022-08-20T16:17:28.899Z,96942.13
2022-08-20T16:20:10.117Z,96941.34
2022-08-20T16:22:43.995Z,96942.16
2022-08-20T16:25:13.626Z,96946.97
2022-08-20T16:28:14.100Z,96960.06
2022-08-20T16:30:49.638Z,96967.84
2022-08-20T16:33:31.640Z,96960.19
2022-08-20T16:36:46.676Z,96950.56
2022-08-20T16:39:39.526Z,96948.53
2022-08-20T16:42:10.646Z,96934.22
2022-08-20T16:44:45.139Z,96933.88
2022-08-20T16:47:35.818Z,96938.06
2022-08-20T16:50:11.888Z,96938.78
2022-08-20T16:52:44.957Z,96937.47
2022-08-20T16:55:14.146Z,96945.81
2022-08-20T16:57:41.603Z,96943.19
2022-08-20T17:00:35.806Z,96941.97
2022-08-20T17:03:33.598Z,96953.16
2022-08-20T17:06:35.385Z,96957.97
2022-08-20T17:09:11.176Z,96960.66
2022-08-20T17:11:39.455Z,96963.69
2022-08-20T17:14:18.466Z,96972.88
2022-08-20T17:16:53.013Z,96961.56
2022-08-20T17:19:31.604Z,96968.88
2022-08-20T17:22:12.292Z,96972.38
2022-08-20T17:24:40.476Z,96972.75
2022-08-20T17:27:16.190Z,96973.50
2022-08-20T17:29:54.359Z,96975.06
2022-08-20T17:32:29.343Z,96980.13
2022-08-20T17:35:01.643Z,96979.00
2022-08-20T17:37:40.582Z,96980.63
2022-08-20T17:40:18.521Z,96980.31
2022-08-20T17:43:01.503Z,96986.72
2022-08-20T17:45:37.740Z,96986.81
2022-08-20T17:48:14.398Z,96982.13
2022-08-20T17:50:44.815Z,96981.38
2022-08-20T17:53:31.769Z,96980.66
2022-08-20T17:56:04.708Z,96980.16
2022-08-20T17:58:56.518Z,96983.06
2022-08-20T18:01:26.048Z,96977.09
2022-08-20T18:03:54.124Z,96971.22
2022-08-20T18:06:34.751Z,96965.91
2022-08-20T18:09:25.255Z,96968.16
2022-08-20T18:12:07.471Z,96966.53
2022-08-20T18:15:23.649Z,96967.31
2022-08-20T18:18:28.025Z,96973.44
2022-08-20T18:21:36.585Z,96984.97
2022-08-20T18:24:14.053Z,96989.22
2022-08-20T18:27:08.955Z,96995.88
2022-08-20T18:29:41.833Z,96999.38
2022-08-20T18:32:33.237Z,97011.84
2022-08-20T18:35:12.623Z,97013.41
2022-08-20T18:37:40.608Z,97017.28
2022-08-20T18:40:29.337Z,97023.13
2022-08-20T18:42:59.622Z,97028.56
2022-08-20T18:45:34.132Z,97031.44
2022-08-20T18:48:05.056Z,97021.09
2022-08-20T18:50:46.331Z,97028.97
2022-08-20T18:53:13.515Z,97036.59
2022-08-20T18:56:00.104Z,97038.16
2022-08-20T18:59:11.915Z,97043.09
2022-08-20T19:01:42.549Z,97056.00
2022-08-20T19:04:32.088Z,97054.00
2022-08-20T19:07:06.316Z,97049.28
2022-08-20T19:10:09.416Z,97052.13
2022-08-20T19:13:04.985Z,97045.63
2022-08-20T19:15:36.531Z,97042.19
2022-08-20T19:18:13.235Z,97042.88
2022-08-20T19:20:59.560Z,97036.19
2022-08-20T19:23:31.607Z,97029.47
2022-08-20T19:26:03.873Z,97016.94
2022-08-20T19:28:53.819Z,97016.94
2022-08-20T19:31:32.499Z,97027.59
2022-08-20T19:34:20.247Z,97022.19
2022-08-20T19:37:10.102Z,97021.88
2022-08-20T19:39:51.351Z,97028.91
2022-08-20T19:42:40.555Z,97033.03
2022-08-20T19:45:41.767Z,97038.31
2022-08-20T19:48:27.227Z,97036.44
2022-08-20T19:51:34.534Z,97030.03
2022-08-20T19:54:08.081Z,97025.88
2022-08-20T19:56:41.196Z,97017.31
2022-08-20T19:59:16.233Z,97017.31
2022-08-20T20:02:00.230Z,97014.63
2022-08-20T20:04:36.434Z,97010.56
2022-08-20T20:07:39.809Z,97014.06
2022-08-20T20:10:19.872Z,97004.41
2022-08-20T20:12:48.300Z,97015.50
2022-08-20T20:15:17.781Z,97021.66
2022-08-20T20:17:45.980Z,96999.06
2022-08-20T20:20:25.351Z,96976.09
2022-08-20T20:23:04.448Z,96983.34
2022-08-20T20:25:34.200Z,96995.97
2022-08-20T20:28:28.767Z,97011.63
2022-08-20T20:31:12.196Z,97014.75
2022-08-20T20:33:44.253Z,97011.81
2022-08-20T20:36:18.627Z,96994.97
2022-08-20T20:39:00.286Z,96995.50
2022-08-20T20:41:29.725Z,96993.25
2022-08-20T20:44:06.941Z,97001.88
2022-08-20T20:46:38.653Z,96998.78
2022-08-20T20:49:08.978Z,97007.69
2022-08-20T20:51:41.246Z,96999.50
2022-08-20T20:54:40.690Z,96997.59
2022-08-20T20:57:35.335Z,96989.84
2022-08-20T21:00:12.592Z,96999.09
2022-08-20T21:02:40.063Z,96993.94
2022-08-20T21:05:07.920Z,96987.16
2022-08-20T21:07:44.373Z,96982.56
2022-08-20T21:10:11.778Z,96975.97
2022-08-20T21:12:39.138Z,96973.75
2022-08-20T21:15:07.322Z,96964.91
2022-08-20T21:17:35.229Z,96977.00
2022-08-20T21:20:05.770Z,96979.13
2022-08-20T21:22:33.279Z,96980.22
2022-08-20T21:25:00.721Z,96975.97
2022-08-20T21:27:28.684Z,96977.84
2022-08-20T21:29:56.802Z,96979.63
2022-08-20T21:32:24.841Z,96979.84
2022-08-20T21:34:52.280Z,96982.97
2022-08-20T21:37:19.500Z,96982.69
2022-08-20T21:39:46.925Z,96985.47
2022-08-20T21:42:29.080Z,96991.59
2022-08-20T21:44:58.781Z,96999.28
2022-08-20T21:47:27.569Z,97002.78
2022-08-20T21:49:54.817Z,96999.63
2022-08-20T21:52:22.217Z,96986.31
2022-08-20T21:54:49.512Z,96984.09
2022-08-20T21:57:27.738Z,96982.84
2022-08-20T21:59:57.323Z,96986.31
2022-08-20T22:02:26.040Z,96989.28
2022-08-20T22:04:54.598Z,96981.50
2022-08-20T22:07:22.209Z,96984.25
2022-08-20T22:09:49.704Z,96993.19
2022-08-20T22:12:23.133Z,96988.94
2022-08-20T22:14:51.329Z,96982.13
2022-08-20T22:17:18.870Z,96978.56
2022-08-20T22:19:46.306Z,96989.03
2022-08-20T22:22:15.671Z,96986.59
2022-08-20T22:24:43.314Z,96984.81
2022-08-20T22:27:10.681Z,96988.53
2022-08-20T22:29:38.035Z,96979.44
2022-08-20T22:32:06.468Z,96982.22
2022-08-20T22:34:36.030Z,96977.88
2022-08-20T22:37:04.171Z,96977.53
2022-08-20T22:39:31.646Z,96986.19
2022-08-20T22:41:59.210Z,96985.72
2022-08-20T22:44:26.728Z,96984.50
2022-08-20T22:46:59.019Z,96982.63
2022-08-20T22:49:30.820Z,96984.50
2022-08-20T22:51:58.886Z,96982.78
2022-08-20T22:54:26.625Z,96989.19
2022-08-20T22:56:55.126Z,96985.97
2022-08-20T22:59:23.501Z,96988.97
2022-08-20T23:01:52.553Z,96991.66
2022-08-20T23:04:31.243Z,96979.59
2022-08-20T23:07:00.657Z,96990.31
2022-08-20T23:09:29.003Z,96980.81
2022-08-20T23:11:57.646Z,96974.31
2022-08-20T23:14:27.104Z,96978.63
2022-08-20T23:17:13.656Z,96978.50
2022-08-20T23:19:42.289Z,96973.34
2022-08-20T23:22:09.859Z,96970.09
2022-08-20T23:24:37.674Z,96967.66
2022-08-20T23:27:07.445Z,96961.66
2022-08-20T23:29:35.506Z,96954.72
2022-08-20T23:32:03.255Z,96952.72
2022-08-20T23:34:30.638Z,96943.69
2022-08-20T23:36:59.845Z,96950.94
2022-08-20T23:39:28.838Z,96949.38
2022-08-20T23:41:57.708Z,96948.25
2022-08-20T23:44:27.127Z,96944.25
2022-08-20T23:46:58.524Z,96948.91
2022-08-20T23:49:28.081Z,96961.00
2022-08-20T23:51:55.872Z,96961.44
2022-08-20T23:54:23.568Z,96962.78
2022-08-20T23:56:51.217Z,96957.66
2022-08-20T23:59:18.479Z,96952.47
